Main page
METAR-TAF:

METAR-TAF

Airports :

Gwadar International Airport

Gwadar, Pakistan

latitude: 25-13-59N, longitude: 062-19-46E, elevation: 29 m

Current weather observation

The report was made 9 hours and 35 minutes ago, at 12:55 UTC
Wind 5 kt from the Southwest
Temperature 31°C
Humidity 52%
Pressure 1009 hPa
Visibility: 6000 m

METAR: OPGD 221255Z 23005KT 6000 FAIR NSC 31/20 Q1009

Time: 03:30 (22:30 UTC)

Forecast

The report was made 7 hours and 0 minutes ago, at 15:30 UTC
Forecast valid from 22 at 18 UTC to 23 at 18 UTC
Wind 6 kt from the West
Visibility: 3000 m
haze
Temporary
from 23 at 00 UTC to 23 at 03 UTC
Wind kt from the North
Visibility: 2000 m
mist
Becoming
from 23 at 03 UTC to 23 at 05 UTC
Wind 12 kt from the North with gusts up to 22 kt
Visibility: 3000 m
widespread dust

TAF: OPGD 221530Z 2218/2318 27006KT 3000 HZ NSC TEMPO 2300/2303 00000KT 2000 BR NSC BECMG 2303/2305 36012G22KT 3000 DU NSC

Weather observations and forecasts of more than 4000 airports (METAR and TAF reports).

The available stations are represented by yellow and red dots on the map.

Hover mouse over dot to see the name of the station.

Then click to see weather observations and forecasts.

To change the map : click on the green buttons with a black cross to zoom in, on the green button with a dash to zoom out, or on the green arrows for adjacent maps.


METAR-TAF: